sensor_id;sensor_type;location;lat;lon;timestamp;P1;durP1;ratioP1;P2;durP2;ratioP2
70908;SDS011;58554;52.006;5.926;2023-01-08T00:00:45;5.87;;;3.63;;
70908;SDS011;58554;52.006;5.926;2023-01-08T00:03:12;5.88;;;3.70;;
70908;SDS011;58554;52.006;5.926;2023-01-08T00:05:39;4.75;;;3.00;;
70908;SDS011;58554;52.006;5.926;2023-01-08T00:08:06;7.03;;;4.03;;
70908;SDS011;58554;52.006;5.926;2023-01-08T00:10:34;6.50;;;3.83;;
70908;SDS011;58554;52.006;5.926;2023-01-08T00:13:00;5.80;;;3.77;;
70908;SDS011;58554;52.006;5.926;2023-01-08T00:15:27;5.83;;;4.13;;
70908;SDS011;58554;52.006;5.926;2023-01-08T00:17:57;5.10;;;3.47;;
70908;SDS011;58554;52.006;5.926;2023-01-08T00:20:23;5.50;;;3.75;;
70908;SDS011;58554;52.006;5.926;2023-01-08T00:22:50;7.35;;;4.22;;
70908;SDS011;58554;52.006;5.926;2023-01-08T00:25:17;6.40;;;3.67;;
70908;SDS011;58554;52.006;5.926;2023-01-08T00:27:45;6.35;;;4.00;;
70908;SDS011;58554;52.006;5.926;2023-01-08T00:30:12;10.57;;;4.30;;
70908;SDS011;58554;52.006;5.926;2023-01-08T00:32:39;6.47;;;4.10;;
70908;SDS011;58554;52.006;5.926;2023-01-08T00:35:08;7.47;;;4.25;;
70908;SDS011;58554;52.006;5.926;2023-01-08T00:37:35;6.10;;;4.07;;
70908;SDS011;58554;52.006;5.926;2023-01-08T00:40:01;6.80;;;4.45;;
70908;SDS011;58554;52.006;5.926;2023-01-08T00:42:28;7.23;;;4.17;;
70908;SDS011;58554;52.006;5.926;2023-01-08T00:44:55;7.10;;;4.30;;
70908;SDS011;58554;52.006;5.926;2023-01-08T00:47:21;5.63;;;3.58;;
70908;SDS011;58554;52.006;5.926;2023-01-08T00:49:48;7.80;;;4.40;;
70908;SDS011;58554;52.006;5.926;2023-01-08T00:52:17;6.88;;;4.10;;
70908;SDS011;58554;52.006;5.926;2023-01-08T00:54:43;6.60;;;4.30;;
70908;SDS011;58554;52.006;5.926;2023-01-08T00:57:10;6.20;;;4.05;;
70908;SDS011;58554;52.006;5.926;2023-01-08T00:59:36;6.43;;;3.87;;
70908;SDS011;58554;52.006;5.926;2023-01-08T01:02:03;7.53;;;4.05;;
70908;SDS011;58554;52.006;5.926;2023-01-08T01:04:29;7.30;;;4.20;;
70908;SDS011;58554;52.006;5.926;2023-01-08T01:06:56;5.65;;;3.75;;
70908;SDS011;58554;52.006;5.926;2023-01-08T01:09:25;7.33;;;4.00;;
70908;SDS011;58554;52.006;5.926;2023-01-08T01:11:52;7.80;;;4.30;;
70908;SDS011;58554;52.006;5.926;2023-01-08T01:14:18;7.70;;;4.35;;
70908;SDS011;58554;52.006;5.926;2023-01-08T01:16:45;6.87;;;4.77;;
70908;SDS011;58554;52.006;5.926;2023-01-08T01:19:12;7.00;;;3.42;;
70908;SDS011;58554;52.006;5.926;2023-01-08T01:21:38;9.80;;;4.00;;
70908;SDS011;58554;52.006;5.926;2023-01-08T01:24:06;9.52;;;4.68;;
70908;SDS011;58554;52.006;5.926;2023-01-08T01:26:35;8.00;;;4.87;;
70908;SDS011;58554;52.006;5.926;2023-01-08T01:29:02;8.13;;;4.00;;
70908;SDS011;58554;52.006;5.926;2023-01-08T01:31:29;7.90;;;4.47;;
70908;SDS011;58554;52.006;5.926;2023-01-08T01:33:57;7.70;;;4.40;;
70908;SDS011;58554;52.006;5.926;2023-01-08T01:36:25;5.83;;;3.27;;
70908;SDS011;58554;52.006;5.926;2023-01-08T01:38:52;8.27;;;4.23;;
70908;SDS011;58554;52.006;5.926;2023-01-08T01:41:23;6.77;;;4.17;;
70908;SDS011;58554;52.006;5.926;2023-01-08T01:43:55;9.40;;;4.43;;
70908;SDS011;58554;52.006;5.926;2023-01-08T01:46:26;13.53;;;4.10;;
70908;SDS011;58554;52.006;5.926;2023-01-08T01:49:04;7.23;;;3.73;;
70908;SDS011;58554;52.006;5.926;2023-01-08T01:51:37;5.33;;;3.47;;
70908;SDS011;58554;52.006;5.926;2023-01-08T01:54:08;7.00;;;4.30;;
70908;SDS011;58554;52.006;5.926;2023-01-08T01:56:38;7.20;;;4.30;;
70908;SDS011;58554;52.006;5.926;2023-01-08T01:59:08;7.87;;;4.80;;
70908;SDS011;58554;52.006;5.926;2023-01-08T02:01:35;7.45;;;4.03;;
70908;SDS011;58554;52.006;5.926;2023-01-08T02:04:05;7.83;;;4.40;;
70908;SDS011;58554;52.006;5.926;2023-01-08T02:06:35;9.03;;;4.20;;
70908;SDS011;58554;52.006;5.926;2023-01-08T02:09:08;6.20;;;4.07;;
70908;SDS011;58554;52.006;5.926;2023-01-08T02:11:48;8.57;;;3.67;;
70908;SDS011;58554;52.006;5.926;2023-01-08T02:14:25;9.63;;;4.43;;
70908;SDS011;58554;52.006;5.926;2023-01-08T02:17:04;6.40;;;4.30;;
70908;SDS011;58554;52.006;5.926;2023-01-08T02:19:39;6.63;;;3.47;;
70908;SDS011;58554;52.006;5.926;2023-01-08T02:22:18;9.48;;;4.10;;
70908;SDS011;58554;52.006;5.926;2023-01-08T02:25:00;8.07;;;4.27;;
70908;SDS011;58554;52.006;5.926;2023-01-08T02:27:41;6.70;;;3.83;;
70908;SDS011;58554;52.006;5.926;2023-01-08T02:30:13;6.33;;;3.87;;
70908;SDS011;58554;52.006;5.926;2023-01-08T02:32:40;9.57;;;4.80;;
70908;SDS011;58554;52.006;5.926;2023-01-08T02:35:09;7.28;;;4.22;;
70908;SDS011;58554;52.006;5.926;2023-01-08T02:37:37;7.33;;;3.50;;
70908;SDS011;58554;52.006;5.926;2023-01-08T02:40:08;7.15;;;3.92;;
70908;SDS011;58554;52.006;5.926;2023-01-08T02:42:53;5.53;;;3.80;;
70908;SDS011;58554;52.006;5.926;2023-01-08T02:45:35;7.07;;;3.92;;
70908;SDS011;58554;52.006;5.926;2023-01-08T02:48:12;6.70;;;4.47;;
70908;SDS011;58554;52.006;5.926;2023-01-08T02:50:48;7.83;;;4.30;;
70908;SDS011;58554;52.006;5.926;2023-01-08T02:53:25;11.02;;;4.70;;
70908;SDS011;58554;52.006;5.926;2023-01-08T02:55:56;7.47;;;3.93;;
70908;SDS011;58554;52.006;5.926;2023-01-08T02:58:31;7.22;;;3.97;;
70908;SDS011;58554;52.006;5.926;2023-01-08T03:01:02;8.47;;;4.10;;
70908;SDS011;58554;52.006;5.926;2023-01-08T03:03:34;6.83;;;3.80;;
70908;SDS011;58554;52.006;5.926;2023-01-08T03:06:07;6.75;;;4.00;;
70908;SDS011;58554;52.006;5.926;2023-01-08T03:08:39;6.10;;;3.40;;
70908;SDS011;58554;52.006;5.926;2023-01-08T03:11:09;7.85;;;4.00;;
70908;SDS011;58554;52.006;5.926;2023-01-08T03:13:44;8.30;;;2.77;;
70908;SDS011;58554;52.006;5.926;2023-01-08T03:16:16;4.00;;;2.80;;
70908;SDS011;58554;52.006;5.926;2023-01-08T03:18:51;5.57;;;3.20;;
70908;SDS011;58554;52.006;5.926;2023-01-08T03:21:25;5.80;;;2.70;;
70908;SDS011;58554;52.006;5.926;2023-01-08T03:23:52;4.32;;;2.20;;
70908;SDS011;58554;52.006;5.926;2023-01-08T03:26:20;3.70;;;2.10;;
70908;SDS011;58554;52.006;5.926;2023-01-08T03:28:54;3.45;;;1.90;;
70908;SDS011;58554;52.006;5.926;2023-01-08T03:31:22;3.77;;;2.13;;
70908;SDS011;58554;52.006;5.926;2023-01-08T03:33:53;4.63;;;1.80;;
70908;SDS011;58554;52.006;5.926;2023-01-08T03:36:23;2.45;;;1.52;;
70908;SDS011;58554;52.006;5.926;2023-01-08T03:38:55;4.57;;;1.20;;
70908;SDS011;58554;52.006;5.926;2023-01-08T03:41:30;4.97;;;1.63;;
70908;SDS011;58554;52.006;5.926;2023-01-08T03:44:04;2.77;;;1.37;;
70908;SDS011;58554;52.006;5.926;2023-01-08T03:46:31;2.00;;;1.47;;
70908;SDS011;58554;52.006;5.926;2023-01-08T03:49:05;4.83;;;1.53;;
70908;SDS011;58554;52.006;5.926;2023-01-08T03:51:39;4.35;;;2.10;;
70908;SDS011;58554;52.006;5.926;2023-01-08T03:54:07;3.73;;;1.27;;
70908;SDS011;58554;52.006;5.926;2023-01-08T03:56:39;3.05;;;1.45;;
70908;SDS011;58554;52.006;5.926;2023-01-08T03:59:09;3.60;;;1.50;;
70908;SDS011;58554;52.006;5.926;2023-01-08T04:01:36;4.27;;;1.50;;
70908;SDS011;58554;52.006;5.926;2023-01-08T04:04:03;3.53;;;1.38;;
70908;SDS011;58554;52.006;5.926;2023-01-08T04:06:30;3.43;;;1.50;;
70908;SDS011;58554;52.006;5.926;2023-01-08T04:08:56;3.42;;;1.45;;
70908;SDS011;58554;52.006;5.926;2023-01-08T04:11:23;3.23;;;1.13;;
70908;SDS011;58554;52.006;5.926;2023-01-08T04:13:49;5.03;;;1.77;;
70908;SDS011;58554;52.006;5.926;2023-01-08T04:16:19;4.77;;;1.67;;
70908;SDS011;58554;52.006;5.926;2023-01-08T04:18:45;4.03;;;1.53;;
70908;SDS011;58554;52.006;5.926;2023-01-08T04:21:11;4.47;;;1.50;;
70908;SDS011;58554;52.006;5.926;2023-01-08T04:23:38;3.07;;;1.40;;
70908;SDS011;58554;52.006;5.926;2023-01-08T04:26:05;2.10;;;1.20;;
70908;SDS011;58554;52.006;5.926;2023-01-08T04:28:33;5.35;;;1.55;;
70908;SDS011;58554;52.006;5.926;2023-01-08T04:31:03;3.47;;;1.40;;
70908;SDS011;58554;52.006;5.926;2023-01-08T04:33:34;4.87;;;1.43;;
70908;SDS011;58554;52.006;5.926;2023-01-08T04:36:02;5.90;;;1.60;;
70908;SDS011;58554;52.006;5.926;2023-01-08T04:38:30;3.73;;;1.30;;
70908;SDS011;58554;52.006;5.926;2023-01-08T04:40:57;5.50;;;1.23;;
70908;SDS011;58554;52.006;5.926;2023-01-08T04:43:24;4.13;;;1.25;;
70908;SDS011;58554;52.006;5.926;2023-01-08T04:45:51;4.50;;;1.50;;
70908;SDS011;58554;52.006;5.926;2023-01-08T04:48:17;3.40;;;1.42;;
70908;SDS011;58554;52.006;5.926;2023-01-08T04:50:46;3.30;;;1.40;;
70908;SDS011;58554;52.006;5.926;2023-01-08T04:53:13;4.57;;;1.48;;
70908;SDS011;58554;52.006;5.926;2023-01-08T04:55:39;4.65;;;1.35;;
70908;SDS011;58554;52.006;5.926;2023-01-08T04:58:06;3.53;;;1.30;;
70908;SDS011;58554;52.006;5.926;2023-01-08T05:00:33;6.90;;;1.38;;
70908;SDS011;58554;52.006;5.926;2023-01-08T05:03:00;4.07;;;1.37;;
70908;SDS011;58554;52.006;5.926;2023-01-08T05:05:27;4.63;;;1.40;;
70908;SDS011;58554;52.006;5.926;2023-01-08T05:07:56;3.70;;;1.50;;
70908;SDS011;58554;52.006;5.926;2023-01-08T05:10:23;2.28;;;1.30;;
70908;SDS011;58554;52.006;5.926;2023-01-08T05:12:50;3.40;;;1.30;;
70908;SDS011;58554;52.006;5.926;2023-01-08T05:15:16;5.10;;;1.67;;
70908;SDS011;58554;52.006;5.926;2023-01-08T05:17:43;4.73;;;1.27;;
70908;SDS011;58554;52.006;5.926;2023-01-08T05:20:10;5.65;;;1.52;;
70908;SDS011;58554;52.006;5.926;2023-01-08T05:22:36;5.33;;;1.50;;
70908;SDS011;58554;52.006;5.926;2023-01-08T05:25:06;3.87;;;1.33;;
70908;SDS011;58554;52.006;5.926;2023-01-08T05:27:33;4.13;;;1.40;;
70908;SDS011;58554;52.006;5.926;2023-01-08T05:30:00;5.43;;;1.47;;
70908;SDS011;58554;52.006;5.926;2023-01-08T05:32:26;4.13;;;1.75;;
70908;SDS011;58554;52.006;5.926;2023-01-08T05:34:53;4.97;;;1.53;;
70908;SDS011;58554;52.006;5.926;2023-01-08T05:37:19;4.70;;;1.70;;
70908;SDS011;58554;52.006;5.926;2023-01-08T05:39:45;5.80;;;1.70;;
70908;SDS011;58554;52.006;5.926;2023-01-08T05:42:15;3.83;;;1.50;;
70908;SDS011;58554;52.006;5.926;2023-01-08T05:44:41;6.30;;;1.80;;
70908;SDS011;58554;52.006;5.926;2023-01-08T05:47:07;5.17;;;1.87;;
70908;SDS011;58554;52.006;5.926;2023-01-08T05:49:34;3.50;;;1.80;;
70908;SDS011;58554;52.006;5.926;2023-01-08T05:52:00;7.23;;;1.83;;
70908;SDS011;58554;52.006;5.926;2023-01-08T05:54:27;4.43;;;1.67;;
70908;SDS011;58554;52.006;5.926;2023-01-08T05:56:53;5.30;;;2.03;;
70908;SDS011;58554;52.006;5.926;2023-01-08T05:59:22;3.75;;;1.58;;
70908;SDS011;58554;52.006;5.926;2023-01-08T06:01:49;4.83;;;2.17;;
70908;SDS011;58554;52.006;5.926;2023-01-08T06:04:15;3.83;;;2.00;;
70908;SDS011;58554;52.006;5.926;2023-01-08T06:06:42;4.50;;;2.00;;
70908;SDS011;58554;52.006;5.926;2023-01-08T06:09:08;5.67;;;2.20;;
70908;SDS011;58554;52.006;5.926;2023-01-08T06:11:35;3.70;;;2.03;;
70908;SDS011;58554;52.006;5.926;2023-01-08T06:14:01;5.57;;;2.23;;
70908;SDS011;58554;52.006;5.926;2023-01-08T06:16:30;5.25;;;2.10;;
70908;SDS011;58554;52.006;5.926;2023-01-08T06:18:57;3.90;;;2.00;;
70908;SDS011;58554;52.006;5.926;2023-01-08T06:21:23;4.40;;;2.25;;
70908;SDS011;58554;52.006;5.926;2023-01-08T06:23:50;4.60;;;2.00;;
70908;SDS011;58554;52.006;5.926;2023-01-08T06:26:16;5.23;;;2.40;;
70908;SDS011;58554;52.006;5.926;2023-01-08T06:28:43;6.13;;;2.10;;
70908;SDS011;58554;52.006;5.926;2023-01-08T06:31:10;5.40;;;1.93;;
70908;SDS011;58554;52.006;5.926;2023-01-08T06:33:39;3.25;;;1.88;;
70908;SDS011;58554;52.006;5.926;2023-01-08T06:36:06;4.80;;;1.70;;
70908;SDS011;58554;52.006;5.926;2023-01-08T06:38:33;6.03;;;1.80;;
70908;SDS011;58554;52.006;5.926;2023-01-08T06:41:02;4.45;;;1.90;;
70908;SDS011;58554;52.006;5.926;2023-01-08T06:43:29;5.18;;;1.90;;
70908;SDS011;58554;52.006;5.926;2023-01-08T06:45:56;3.27;;;1.50;;
70908;SDS011;58554;52.006;5.926;2023-01-08T06:48:22;4.85;;;1.85;;
70908;SDS011;58554;52.006;5.926;2023-01-08T06:50:52;3.13;;;1.90;;
70908;SDS011;58554;52.006;5.926;2023-01-08T06:53:19;5.05;;;1.90;;
70908;SDS011;58554;52.006;5.926;2023-01-08T06:55:45;3.87;;;2.00;;
70908;SDS011;58554;52.006;5.926;2023-01-08T06:58:12;3.67;;;1.90;;
70908;SDS011;58554;52.006;5.926;2023-01-08T07:00:38;4.87;;;1.70;;
70908;SDS011;58554;52.006;5.926;2023-01-08T07:03:05;6.20;;;2.13;;
70908;SDS011;58554;52.006;5.926;2023-01-08T07:05:32;4.77;;;1.63;;
70908;SDS011;58554;52.006;5.926;2023-01-08T07:08:01;4.97;;;2.08;;
70908;SDS011;58554;52.006;5.926;2023-01-08T07:10:27;2.80;;;1.40;;
70908;SDS011;58554;52.006;5.926;2023-01-08T07:12:54;3.80;;;1.60;;
70908;SDS011;58554;52.006;5.926;2023-01-08T07:15:20;5.20;;;1.70;;
70908;SDS011;58554;52.006;5.926;2023-01-08T07:17:47;6.37;;;2.07;;
70908;SDS011;58554;52.006;5.926;2023-01-08T07:20:13;4.30;;;2.00;;
70908;SDS011;58554;52.006;5.926;2023-01-08T07:22:40;5.00;;;1.73;;
70908;SDS011;58554;52.006;5.926;2023-01-08T07:25:09;4.05;;;1.40;;
70908;SDS011;58554;52.006;5.926;2023-01-08T07:27:36;11.90;;;1.73;;
70908;SDS011;58554;52.006;5.926;2023-01-08T07:30:02;6.07;;;1.90;;
70908;SDS011;58554;52.006;5.926;2023-01-08T07:32:31;4.00;;;1.67;;
70908;SDS011;58554;52.006;5.926;2023-01-08T07:34:58;5.53;;;1.80;;
70908;SDS011;58554;52.006;5.926;2023-01-08T07:37:24;6.13;;;1.75;;
70908;SDS011;58554;52.006;5.926;2023-01-08T07:39:51;3.90;;;1.70;;
70908;SDS011;58554;52.006;5.926;2023-01-08T07:42:20;5.18;;;1.80;;
70908;SDS011;58554;52.006;5.926;2023-01-08T07:44:46;4.27;;;1.63;;
70908;SDS011;58554;52.006;5.926;2023-01-08T07:47:13;5.03;;;1.97;;
70908;SDS011;58554;52.006;5.926;2023-01-08T07:49:40;3.75;;;1.80;;
70908;SDS011;58554;52.006;5.926;2023-01-08T07:52:06;6.23;;;2.20;;
70908;SDS011;58554;52.006;5.926;2023-01-08T07:54:32;5.43;;;1.85;;
70908;SDS011;58554;52.006;5.926;2023-01-08T07:56:59;5.03;;;1.60;;
70908;SDS011;58554;52.006;5.926;2023-01-08T07:59:28;3.43;;;1.50;;
70908;SDS011;58554;52.006;5.926;2023-01-08T08:01:55;5.40;;;1.70;;
70908;SDS011;58554;52.006;5.926;2023-01-08T08:04:21;7.33;;;1.57;;
70908;SDS011;58554;52.006;5.926;2023-01-08T08:06:47;4.97;;;1.30;;
70908;SDS011;58554;52.006;5.926;2023-01-08T08:09:14;5.07;;;1.70;;
70908;SDS011;58554;52.006;5.926;2023-01-08T08:11:41;3.47;;;1.63;;
70908;SDS011;58554;52.006;5.926;2023-01-08T08:14:07;6.38;;;1.70;;
70908;SDS011;58554;52.006;5.926;2023-01-08T08:16:36;4.93;;;1.88;;
70908;SDS011;58554;52.006;5.926;2023-01-08T08:19:03;6.73;;;1.47;;
70908;SDS011;58554;52.006;5.926;2023-01-08T08:21:30;4.22;;;1.20;;
70908;SDS011;58554;52.006;5.926;2023-01-08T08:23:57;10.68;;;4.30;;
70908;SDS011;58554;52.006;5.926;2023-01-08T08:26:23;5.87;;;1.90;;
70908;SDS011;58554;52.006;5.926;2023-01-08T08:28:50;7.85;;;1.52;;
70908;SDS011;58554;52.006;5.926;2023-01-08T08:31:16;6.80;;;1.70;;
70908;SDS011;58554;52.006;5.926;2023-01-08T08:33:45;5.67;;;1.50;;
70908;SDS011;58554;52.006;5.926;2023-01-08T08:36:12;4.30;;;1.33;;
70908;SDS011;58554;52.006;5.926;2023-01-08T08:38:38;6.00;;;1.50;;
70908;SDS011;58554;52.006;5.926;2023-01-08T08:41:05;6.50;;;1.57;;
70908;SDS011;58554;52.006;5.926;2023-01-08T08:43:31;6.13;;;2.00;;
70908;SDS011;58554;52.006;5.926;2023-01-08T08:45:58;7.60;;;1.60;;
70908;SDS011;58554;52.006;5.926;2023-01-08T08:48:24;3.90;;;1.30;;
70908;SDS011;58554;52.006;5.926;2023-01-08T08:50:54;3.70;;;1.33;;
70908;SDS011;58554;52.006;5.926;2023-01-08T08:53:20;6.65;;;1.63;;
70908;SDS011;58554;52.006;5.926;2023-01-08T08:55:47;9.23;;;1.70;;
70908;SDS011;58554;52.006;5.926;2023-01-08T08:58:13;6.77;;;1.70;;
70908;SDS011;58554;52.006;5.926;2023-01-08T09:00:40;3.95;;;1.35;;
70908;SDS011;58554;52.006;5.926;2023-01-08T09:03:09;7.05;;;1.42;;
70908;SDS011;58554;52.006;5.926;2023-01-08T09:05:39;5.70;;;1.60;;
70908;SDS011;58554;52.006;5.926;2023-01-08T09:08:08;4.57;;;1.45;;
70908;SDS011;58554;52.006;5.926;2023-01-08T09:10:36;4.53;;;1.57;;
70908;SDS011;58554;52.006;5.926;2023-01-08T09:13:04;6.28;;;1.50;;
70908;SDS011;58554;52.006;5.926;2023-01-08T09:15:31;4.37;;;1.53;;
70908;SDS011;58554;52.006;5.926;2023-01-08T09:17:57;6.47;;;1.40;;
70908;SDS011;58554;52.006;5.926;2023-01-08T09:20:25;4.73;;;1.57;;
70908;SDS011;58554;52.006;5.926;2023-01-08T09:22:52;6.70;;;1.95;;
70908;SDS011;58554;52.006;5.926;2023-01-08T09:25:21;5.37;;;1.30;;
70908;SDS011;58554;52.006;5.926;2023-01-08T09:27:48;6.33;;;1.60;;
70908;SDS011;58554;52.006;5.926;2023-01-08T09:30:22;6.77;;;1.40;;
70908;SDS011;58554;52.006;5.926;2023-01-08T09:32:49;6.60;;;1.60;;
70908;SDS011;58554;52.006;5.926;2023-01-08T09:35:15;4.43;;;2.33;;
70908;SDS011;58554;52.006;5.926;2023-01-08T09:37:42;5.37;;;1.37;;
70908;SDS011;58554;52.006;5.926;2023-01-08T09:40:09;8.27;;;1.70;;
70908;SDS011;58554;52.006;5.926;2023-01-08T09:42:43;5.53;;;1.65;;
70908;SDS011;58554;52.006;5.926;2023-01-08T09:45:22;5.77;;;1.57;;
70908;SDS011;58554;52.006;5.926;2023-01-08T09:47:53;4.47;;;1.67;;
70908;SDS011;58554;52.006;5.926;2023-01-08T09:50:27;5.70;;;1.50;;
70908;SDS011;58554;52.006;5.926;2023-01-08T09:52:54;6.03;;;1.88;;
70908;SDS011;58554;52.006;5.926;2023-01-08T09:55:22;7.20;;;1.60;;
70908;SDS011;58554;52.006;5.926;2023-01-08T09:57:52;4.82;;;1.60;;
70908;SDS011;58554;52.006;5.926;2023-01-08T10:00:20;4.03;;;1.60;;
70908;SDS011;58554;52.006;5.926;2023-01-08T10:02:53;6.73;;;1.80;;
70908;SDS011;58554;52.006;5.926;2023-01-08T10:05:21;6.23;;;2.03;;
70908;SDS011;58554;52.006;5.926;2023-01-08T10:07:48;4.28;;;1.48;;
70908;SDS011;58554;52.006;5.926;2023-01-08T10:10:16;4.90;;;1.80;;
70908;SDS011;58554;52.006;5.926;2023-01-08T10:12:46;7.83;;;2.07;;
70908;SDS011;58554;52.006;5.926;2023-01-08T10:15:18;4.67;;;1.47;;
70908;SDS011;58554;52.006;5.926;2023-01-08T10:17:47;5.53;;;1.80;;
70908;SDS011;58554;52.006;5.926;2023-01-08T10:20:23;7.55;;;1.77;;
70908;SDS011;58554;52.006;5.926;2023-01-08T10:22:52;6.50;;;2.08;;
70908;SDS011;58554;52.006;5.926;2023-01-08T10:25:20;5.60;;;1.87;;
70908;SDS011;58554;52.006;5.926;2023-01-08T10:27:51;5.25;;;1.77;;
70908;SDS011;58554;52.006;5.926;2023-01-08T10:30:32;7.50;;;2.20;;
70908;SDS011;58554;52.006;5.926;2023-01-08T10:33:03;7.80;;;2.65;;
70908;SDS011;58554;52.006;5.926;2023-01-08T10:35:36;7.55;;;1.80;;
70908;SDS011;58554;52.006;5.926;2023-01-08T10:38:18;6.37;;;2.17;;
70908;SDS011;58554;52.006;5.926;2023-01-08T10:40:53;6.57;;;1.88;;
70908;SDS011;58554;52.006;5.926;2023-01-08T10:43:23;6.88;;;1.90;;
70908;SDS011;58554;52.006;5.926;2023-01-08T10:45:58;6.97;;;2.13;;
70908;SDS011;58554;52.006;5.926;2023-01-08T10:48:34;7.80;;;2.40;;
70908;SDS011;58554;52.006;5.926;2023-01-08T10:51:05;8.57;;;2.63;;
70908;SDS011;58554;52.006;5.926;2023-01-08T10:53:40;6.13;;;2.30;;
70908;SDS011;58554;52.006;5.926;2023-01-08T10:56:14;7.18;;;2.10;;
70908;SDS011;58554;52.006;5.926;2023-01-08T10:58:45;8.97;;;2.57;;
70908;SDS011;58554;52.006;5.926;2023-01-08T11:01:19;8.35;;;2.38;;
70908;SDS011;58554;52.006;5.926;2023-01-08T11:03:50;5.55;;;2.30;;
70908;SDS011;58554;52.006;5.926;2023-01-08T11:06:21;5.93;;;2.10;;
70908;SDS011;58554;52.006;5.926;2023-01-08T11:08:52;9.07;;;2.33;;
70908;SDS011;58554;52.006;5.926;2023-01-08T11:11:22;11.07;;;2.45;;
70908;SDS011;58554;52.006;5.926;2023-01-08T11:13:57;3.33;;;1.43;;
70908;SDS011;58554;52.006;5.926;2023-01-08T11:16:32;5.80;;;2.00;;
70908;SDS011;58554;52.006;5.926;2023-01-08T11:19:03;4.90;;;2.07;;
70908;SDS011;58554;52.006;5.926;2023-01-08T11:21:41;8.10;;;2.10;;
70908;SDS011;58554;52.006;5.926;2023-01-08T11:24:14;7.15;;;2.28;;
70908;SDS011;58554;52.006;5.926;2023-01-08T11:26:47;7.77;;;2.30;;
70908;SDS011;58554;52.006;5.926;2023-01-08T11:29:21;4.88;;;2.08;;
70908;SDS011;58554;52.006;5.926;2023-01-08T11:32:02;6.33;;;2.60;;
70908;SDS011;58554;52.006;5.926;2023-01-08T11:34:56;4.95;;;2.22;;
70908;SDS011;58554;52.006;5.926;2023-01-08T11:37:30;5.83;;;2.07;;
70908;SDS011;58554;52.006;5.926;2023-01-08T11:40:09;5.33;;;2.23;;
70908;SDS011;58554;52.006;5.926;2023-01-08T11:42:53;5.50;;;2.65;;
70908;SDS011;58554;52.006;5.926;2023-01-08T11:45:59;6.00;;;2.47;;
70908;SDS011;58554;52.006;5.926;2023-01-08T11:49:03;7.50;;;1.92;;
70908;SDS011;58554;52.006;5.926;2023-01-08T11:51:53;3.27;;;1.70;;
70908;SDS011;58554;52.006;5.926;2023-01-08T11:54:40;5.65;;;2.00;;
70908;SDS011;58554;52.006;5.926;2023-01-08T11:57:33;5.73;;;1.63;;
70908;SDS011;58554;52.006;5.926;2023-01-08T12:00:23;4.93;;;1.90;;
70908;SDS011;58554;52.006;5.926;2023-01-08T12:03:07;3.70;;;1.40;;
70908;SDS011;58554;52.006;5.926;2023-01-08T12:05:49;2.58;;;1.42;;
70908;SDS011;58554;52.006;5.926;2023-01-08T12:08:32;3.77;;;1.73;;
70908;SDS011;58554;52.006;5.926;2023-01-08T12:11:11;3.63;;;1.80;;
70908;SDS011;58554;52.006;5.926;2023-01-08T12:13:53;3.08;;;1.45;;
70908;SDS011;58554;52.006;5.926;2023-01-08T12:16:44;4.37;;;1.80;;
70908;SDS011;58554;52.006;5.926;2023-01-08T12:19:35;4.93;;;1.43;;
70908;SDS011;58554;52.006;5.926;2023-01-08T12:22:28;4.23;;;1.50;;
70908;SDS011;58554;52.006;5.926;2023-01-08T12:25:20;2.95;;;1.60;;
70908;SDS011;58554;52.006;5.926;2023-01-08T12:28:13;5.23;;;1.60;;
70908;SDS011;58554;52.006;5.926;2023-01-08T12:31:04;2.92;;;1.40;;
70908;SDS011;58554;52.006;5.926;2023-01-08T12:33:56;2.97;;;1.27;;
70908;SDS011;58554;52.006;5.926;2023-01-08T12:36:32;2.67;;;1.50;;
70908;SDS011;58554;52.006;5.926;2023-01-08T12:39:09;2.20;;;1.03;;
70908;SDS011;58554;52.006;5.926;2023-01-08T12:41:46;3.88;;;1.60;;
70908;SDS011;58554;52.006;5.926;2023-01-08T12:44:20;2.17;;;1.40;;
70908;SDS011;58554;52.006;5.926;2023-01-08T12:46:54;3.60;;;1.10;;
70908;SDS011;58554;52.006;5.926;2023-01-08T12:49:28;3.53;;;1.40;;
70908;SDS011;58554;52.006;5.926;2023-01-08T12:52:08;2.43;;;1.33;;
70908;SDS011;58554;52.006;5.926;2023-01-08T12:54:47;3.77;;;1.40;;
70908;SDS011;58554;52.006;5.926;2023-01-08T12:57:24;2.37;;;1.30;;
70908;SDS011;58554;52.006;5.926;2023-01-08T13:00:00;2.72;;;1.20;;
70908;SDS011;58554;52.006;5.926;2023-01-08T13:02:37;2.40;;;1.07;;
70908;SDS011;58554;52.006;5.926;2023-01-08T13:05:27;3.83;;;1.40;;
70908;SDS011;58554;52.006;5.926;2023-01-08T13:07:58;1.97;;;1.40;;
70908;SDS011;58554;52.006;5.926;2023-01-08T13:10:40;2.42;;;1.45;;
70908;SDS011;58554;52.006;5.926;2023-01-08T13:13:23;2.50;;;1.20;;
70908;SDS011;58554;52.006;5.926;2023-01-08T13:16:07;3.50;;;1.70;;
70908;SDS011;58554;52.006;5.926;2023-01-08T13:18:51;2.87;;;1.40;;
70908;SDS011;58554;52.006;5.926;2023-01-08T13:21:31;2.40;;;1.40;;
70908;SDS011;58554;52.006;5.926;2023-01-08T13:24:20;3.27;;;1.40;;
70908;SDS011;58554;52.006;5.926;2023-01-08T13:26:56;4.32;;;1.85;;
70908;SDS011;58554;52.006;5.926;2023-01-08T13:29:38;2.67;;;1.70;;
70908;SDS011;58554;52.006;5.926;2023-01-08T13:32:26;3.60;;;1.60;;
70908;SDS011;58554;52.006;5.926;2023-01-08T13:35:20;2.80;;;1.40;;
70908;SDS011;58554;52.006;5.926;2023-01-08T13:37:50;3.83;;;1.80;;
70908;SDS011;58554;52.006;5.926;2023-01-08T13:40:38;3.03;;;1.70;;
70908;SDS011;58554;52.006;5.926;2023-01-08T13:43:21;7.07;;;1.70;;
70908;SDS011;58554;52.006;5.926;2023-01-08T13:46:03;5.77;;;2.17;;
70908;SDS011;58554;52.006;5.926;2023-01-08T13:48:39;2.93;;;1.70;;
70908;SDS011;58554;52.006;5.926;2023-01-08T13:51:24;4.57;;;1.70;;
70908;SDS011;58554;52.006;5.926;2023-01-08T13:54:20;2.30;;;1.50;;
70908;SDS011;58554;52.006;5.926;2023-01-08T13:57:01;3.38;;;1.83;;
70908;SDS011;58554;52.006;5.926;2023-01-08T13:59:39;6.27;;;2.30;;
70908;SDS011;58554;52.006;5.926;2023-01-08T14:02:20;5.22;;;1.98;;
70908;SDS011;58554;52.006;5.926;2023-01-08T14:04:52;5.70;;;1.83;;
70908;SDS011;58554;52.006;5.926;2023-01-08T14:07:19;2.92;;;1.70;;
70908;SDS011;58554;52.006;5.926;2023-01-08T14:09:46;4.83;;;2.00;;
70908;SDS011;58554;52.006;5.926;2023-01-08T14:12:14;5.10;;;1.87;;
70908;SDS011;58554;52.006;5.926;2023-01-08T14:14:47;4.27;;;1.80;;
70908;SDS011;58554;52.006;5.926;2023-01-08T14:17:19;3.58;;;1.70;;
70908;SDS011;58554;52.006;5.926;2023-01-08T14:19:53;4.20;;;1.57;;
70908;SDS011;58554;52.006;5.926;2023-01-08T14:22:28;6.67;;;1.87;;
70908;SDS011;58554;52.006;5.926;2023-01-08T14:25:00;3.90;;;2.13;;
70908;SDS011;58554;52.006;5.926;2023-01-08T14:27:31;4.20;;;2.10;;
70908;SDS011;58554;52.006;5.926;2023-01-08T14:30:12;4.23;;;1.87;;
70908;SDS011;58554;52.006;5.926;2023-01-08T14:32:42;4.43;;;1.90;;
70908;SDS011;58554;52.006;5.926;2023-01-08T14:35:13;5.90;;;1.93;;
70908;SDS011;58554;52.006;5.926;2023-01-08T14:37:44;7.95;;;2.03;;
70908;SDS011;58554;52.006;5.926;2023-01-08T14:40:13;5.10;;;1.90;;
70908;SDS011;58554;52.006;5.926;2023-01-08T14:42:42;4.40;;;1.50;;
70908;SDS011;58554;52.006;5.926;2023-01-08T14:45:16;5.40;;;1.90;;
70908;SDS011;58554;52.006;5.926;2023-01-08T14:47:47;8.60;;;2.30;;
70908;SDS011;58554;52.006;5.926;2023-01-08T14:50:17;4.03;;;1.80;;
70908;SDS011;58554;52.006;5.926;2023-01-08T14:52:49;5.03;;;1.70;;
70908;SDS011;58554;52.006;5.926;2023-01-08T14:55:19;5.27;;;1.80;;
70908;SDS011;58554;52.006;5.926;2023-01-08T14:57:47;3.72;;;1.75;;
70908;SDS011;58554;52.006;5.926;2023-01-08T15:00:23;7.57;;;2.10;;
70908;SDS011;58554;52.006;5.926;2023-01-08T15:02:54;4.57;;;1.88;;
70908;SDS011;58554;52.006;5.926;2023-01-08T15:05:23;5.13;;;2.07;;
70908;SDS011;58554;52.006;5.926;2023-01-08T15:07:56;11.27;;;3.95;;
70908;SDS011;58554;52.006;5.926;2023-01-08T15:10:39;5.47;;;2.23;;
70908;SDS011;58554;52.006;5.926;2023-01-08T15:13:10;5.73;;;2.37;;